Time;durP1;ratioP1;P1;durP2;ratioP2;P2;SDS_P1;SDS_P2;PMS_P1;PMS_P2;Temp;Humidity;BMP_temperature;BMP_pressure;BME280_temperature;BME280_humidity;BME280_pressure;Samples;Min_cycle;Max_cycle;Signal;HPM_P1;HPM_P2
2022/12/13 00:01:35;;;;;;;12.57;8.80;;;;;;;0.01;100.00;92513.69;5089694;28;20044;-71
2022/12/13 00:04:04;;;;;;;14.55;10.95;;;;;;;0.12;100.00;92508.28;5089699;28;20477;-72
2022/12/13 00:06:31;;;;;;;12.23;9.27;;;;;;;0.18;100.00;92516.94;5089728;28;20048;-72
2022/12/13 00:08:59;;;;;;;12.48;8.65;;;;;;;0.19;100.00;92522.78;5089862;28;20056;-72
2022/12/13 00:11:27;;;;;;;10.48;8.40;;;;;;;0.29;100.00;92523.38;5089909;28;20575;-71
2022/12/13 00:13:54;;;;;;;11.00;8.00;;;;;;;0.41;100.00;92523.78;5089432;28;20073;-71
2022/12/13 00:16:23;;;;;;;11.05;8.00;;;;;;;0.24;100.00;92502.88;5089337;28;20101;-71
2022/12/13 00:18:54;;;;;;;10.18;7.93;;;;;;;0.50;100.00;92529.59;5089328;28;20050;-72
2022/12/13 00:21:22;;;;;;;9.70;7.60;;;;;;;0.51;100.00;92546.34;5089618;28;20101;-72
2022/12/13 00:23:49;;;;;;;10.15;8.00;;;;;;;0.61;100.00;92543.63;5089668;28;20040;-72
2022/12/13 00:26:18;;;;;;;10.82;8.23;;;;;;;0.47;100.00;92553.47;5089392;28;20451;-72
2022/12/13 00:28:48;;;;;;;11.68;9.10;;;;;;;0.47;100.00;92548.41;5089202;28;20101;-71
2022/12/13 00:31:15;;;;;;;8.40;6.60;;;;;;;0.33;100.00;92537.25;5089686;28;20047;-71
2022/12/13 00:33:42;;;;;;;7.85;6.35;;;;;;;0.38;100.00;92540.06;5089378;28;20048;-71
2022/12/13 00:36:09;;;;;;;10.23;7.00;;;;;;;0.32;100.00;92547.53;5089345;28;20040;-71
2022/12/13 00:38:37;;;;;;;9.20;6.85;;;;;;;0.35;100.00;92532.03;5090879;28;20052;-71
2022/12/13 00:41:10;;;;;;;7.68;6.57;;;;;;;0.46;100.00;92541.78;5093051;28;20048;-71
2022/12/13 00:43:37;;;;;;;9.45;7.20;;;;;;;0.43;100.00;92537.06;5092554;28;20090;-71
2022/12/13 00:46:07;;;;;;;9.30;7.70;;;;;;;0.53;100.00;92546.97;5092821;28;20036;-71
2022/12/13 00:48:33;;;;;;;12.13;9.30;;;;;;;0.57;100.00;92544.91;5092618;28;20105;-72
2022/12/13 00:51:00;;;;;;;10.70;7.80;;;;;;;0.45;100.00;92547.00;5092539;28;20083;-72
2022/12/13 00:53:27;;;;;;;12.02;8.18;;;;;;;0.53;100.00;92547.78;5093020;28;20492;-72
2022/12/13 00:55:53;;;;;;;10.45;7.70;;;;;;;0.53;100.00;92541.91;5093379;28;20117;-72
2022/12/13 00:58:20;;;;;;;10.32;7.97;;;;;;;0.45;100.00;92545.25;5093039;28;20113;-72
2022/12/13 01:00:47;;;;;;;10.88;8.18;;;;;;;0.57;100.00;92543.16;5089192;28;20157;-72
2022/12/13 01:03:24;;;;;;;10.10;8.15;;;;;;;0.66;100.00;92546.44;5072871;28;20044;-72
2022/12/13 01:05:51;;;;;;;11.93;7.78;;;;;;;0.69;100.00;92552.91;5093029;28;20072;-71
2022/12/13 01:08:18;;;;;;;10.35;8.02;;;;;;;0.71;100.00;92549.28;5092896;28;20078;-71
2022/12/13 01:10:45;;;;;;;11.15;8.55;;;;;;;0.60;100.00;92537.78;5093302;28;20438;-71
2022/12/13 01:13:13;;;;;;;10.00;7.90;;;;;;;-0.03;100.00;92557.88;5077554;28;20048;-71
2022/12/13 01:15:41;;;;;;;9.98;7.60;;;;;;;-0.15;100.00;92553.16;5074985;28;20113;-72
2022/12/13 01:18:08;;;;;;;11.02;7.88;;;;;;;-0.12;100.00;92551.25;5072249;28;20567;-72
2022/12/13 01:20:37;;;;;;;13.25;9.02;;;;;;;0.02;100.00;92544.75;5072193;28;20147;-72
2022/12/13 01:23:04;;;;;;;11.50;8.52;;;;;;;0.08;100.00;92547.44;5071623;28;20057;-72
2022/12/13 01:25:32;;;;;;;12.20;8.63;;;;;;;0.18;100.00;92537.16;5071607;28;20040;-71
2022/12/13 01:27:58;;;;;;;8.13;6.53;;;;;;;0.07;100.00;92547.59;5071983;28;20412;-72
2022/12/13 01:30:25;;;;;;;8.98;6.53;;;;;;;0.01;100.00;92560.88;5072021;28;20113;-72
2022/12/13 01:32:52;;;;;;;10.25;7.28;;;;;;;0.17;100.00;92555.78;5071530;28;20565;-71
2022/12/13 01:35:19;;;;;;;9.93;7.65;;;;;;;0.23;100.00;92531.63;5071900;28;20048;-72
2022/12/13 01:37:47;;;;;;;12.13;9.27;;;;;;;0.42;100.00;92553.19;5071754;28;20048;-71
2022/12/13 01:40:13;;;;;;;11.32;8.77;;;;;;;0.53;100.00;92552.03;5071796;28;20447;-71
2022/12/13 01:42:40;;;;;;;11.40;8.18;;;;;;;0.49;100.00;92538.13;5071037;28;20101;-71
2022/12/13 01:45:27;;;;;;;11.18;8.45;;;;;;;0.61;100.00;92557.03;5071456;28;20153;-72
2022/12/13 01:47:58;;;;;;;12.77;9.15;;;;;;;0.63;100.00;92555.16;5071890;28;20061;-72
2022/12/13 01:50:28;;;;;;;11.30;7.60;;;;;;;0.67;100.00;92545.50;5071233;28;20055;-72
2022/12/13 01:52:57;;;;;;;14.55;9.27;;;;;;;0.70;100.00;92550.22;5071471;28;20041;-72
2022/12/13 01:55:27;;;;;;;11.90;8.10;;;;;;;0.72;100.00;92547.50;5071331;28;20052;-72
2022/12/13 01:57:58;;;;;;;11.75;8.32;;;;;;;0.73;100.00;92565.03;5071478;28;20072;-72
2022/12/13 02:00:26;;;;;;;11.80;7.78;;;;;;;0.71;100.00;92563.63;5071066;28;20493;-72
2022/12/13 02:02:54;;;;;;;12.10;8.73;;;;;;;0.60;100.00;92565.56;5071297;28;20048;-71
2022/12/13 02:05:25;;;;;;;11.50;8.98;;;;;;;0.56;100.00;92566.88;5071318;28;20052;-72
2022/12/13 02:07:52;;;;;;;11.85;8.90;;;;;;;0.56;100.00;92559.28;5070960;28;20044;-71
2022/12/13 02:10:20;;;;;;;12.52;9.90;;;;;;;0.53;100.00;92560.41;5071278;28;20045;-70
2022/12/13 02:12:47;;;;;;;15.30;10.02;;;;;;;0.47;100.00;92535.00;5071297;28;20056;-71
2022/12/13 02:15:16;;;;;;;16.13;10.23;;;;;;;0.57;100.00;92552.47;5070952;28;20098;-71
2022/12/13 02:17:59;;;;;;;32.13;19.52;;;;;;;0.35;100.00;92525.25;5070959;28;20048;-71
2022/12/13 02:21:01;;;;;;;23.67;12.50;;;;;;;0.57;100.00;92549.94;5071107;28;20467;-71
2022/12/13 02:24:08;;;;;;;23.50;13.98;;;;;;;0.55;100.00;92559.44;5038705;28;20044;-71
2022/12/13 02:26:59;;;;;;;19.13;10.27;;;;;;;0.49;100.00;92561.69;5070953;28;20109;-72
2022/12/13 02:29:57;;;;;;;17.05;12.00;;;;;;;0.42;100.00;92557.44;5070491;28;20048;-72
2022/12/13 02:32:31;;;;;;;30.90;20.60;;;;;;;0.33;100.00;92566.78;5070279;28;20049;-72
2022/12/13 02:35:05;;;;;;;15.95;10.10;;;;;;;0.16;100.00;92566.03;5070404;28;20558;-72
2022/12/13 02:37:43;;;;;;;11.13;7.25;;;;;;;0.08;100.00;92567.63;5070224;28;20051;-71
2022/12/13 02:40:19;;;;;;;10.77;7.43;;;;;;;0.05;100.00;92552.81;5070283;28;20040;-71
2022/12/13 02:42:49;;;;;;;;;;;;;;;-0.07;100.00;92564.19;5070712;28;20040;-71
2022/12/13 02:45:20;;;;;;;11.82;6.65;;;;;;;-0.17;100.00;92547.50;5070073;28;19924;-71
2022/12/13 02:47:52;;;;;;;15.73;9.45;;;;;;;-0.17;100.00;92542.44;5069570;28;20045;-71
2022/12/13 02:50:19;;;;;;;15.88;9.40;;;;;;;-0.11;100.00;92557.88;5070039;28;20080;-72
2022/12/13 02:52:47;;;;;;;31.08;15.32;;;;;;;-0.16;100.00;92568.47;5070335;28;20115;-71
2022/12/13 02:55:16;;;;;;;53.38;28.75;;;;;;;-0.18;100.00;92573.66;5069710;28;20045;-72
2022/12/13 02:57:45;;;;;;;24.98;13.88;;;;;;;-0.20;100.00;92578.09;5069782;28;20060;-72
2022/12/13 03:00:15;;;;;;;21.88;12.13;;;;;;;-0.24;100.00;92583.63;5070191;28;20052;-71
2022/12/13 03:03:06;;;;;;;21.38;11.30;;;;;;;-0.30;100.00;92585.03;5069888;28;20048;-71
2022/12/13 03:08:34;;;;;;;12.00;7.07;;;;;;;-0.36;100.00;92578.13;5069860;28;20055;-71
2022/12/13 03:11:06;;;;;;;11.27;7.20;;;;;;;-0.38;100.00;92580.78;5069304;28;20044;-71
2022/12/13 03:13:41;;;;;;;11.88;7.13;;;;;;;-0.66;100.00;92573.53;5069881;28;20048;-71
2022/12/13 03:16:25;;;;;;;9.77;7.20;;;;;;;-0.64;100.00;92571.66;5069820;28;20053;-72
2022/12/13 03:18:57;;;;;;;10.40;7.05;;;;;;;-0.65;100.00;92561.72;5067716;28;20119;-71
2022/12/13 03:21:24;;;;;;;11.43;7.60;;;;;;;-1.15;100.00;92533.94;5069624;28;20045;-71
2022/12/13 03:23:50;;;;;;;11.50;7.90;;;;;;;-0.92;100.00;92561.88;5069705;28;20094;-71
2022/12/13 03:26:20;;;;;;;12.07;8.00;;;;;;;-0.99;100.00;92548.28;5069708;28;20049;-71
2022/12/13 03:28:48;;;;;;;17.10;9.93;;;;;;;-0.91;100.00;92550.03;5069310;28;20098;-71
2022/12/13 03:31:15;;;;;;;21.30;12.00;;;;;;;-0.80;100.00;92557.28;5069581;28;20048;-71
2022/12/13 03:33:41;;;;;;;20.55;12.65;;;;;;;-0.76;100.00;92570.38;5069201;28;20052;-72
2022/12/13 03:36:11;;;;;;;51.95;27.73;;;;;;;-0.71;100.00;92561.41;5069231;28;20044;-71
2022/12/13 03:38:39;;;;;;;25.95;14.70;;;;;;;-0.74;100.00;92554.13;5069345;28;20044;-71
2022/12/13 03:41:09;;;;;;;18.60;10.88;;;;;;;-0.77;100.00;92556.97;5069430;28;20051;-72
2022/12/13 03:43:36;;;;;;;19.02;12.05;;;;;;;-0.80;100.00;92564.84;5069257;28;20072;-72
2022/12/13 03:46:03;;;;;;;19.27;12.77;;;;;;;-0.82;100.00;92567.53;5069197;28;20044;-71
2022/12/13 03:48:29;;;;;;;19.38;12.07;;;;;;;-0.82;100.00;92569.28;5071390;28;20052;-72
2022/12/13 03:50:57;;;;;;;17.23;11.75;;;;;;;-0.87;100.00;92563.91;5068796;28;20094;-71
2022/12/13 03:53:26;;;;;;;36.85;19.58;;;;;;;-0.91;100.00;92582.81;5068951;28;20052;-71
2022/12/13 03:55:53;;;;;;;29.52;18.02;;;;;;;-0.99;100.00;92583.56;5069011;28;20090;-71
2022/12/13 03:58:19;;;;;;;34.83;24.55;;;;;;;-1.05;100.00;92584.19;5069359;28;20142;-71
2022/12/13 04:00:46;;;;;;;22.23;16.10;;;;;;;-1.42;100.00;92589.47;5068945;28;20052;-71
2022/12/13 04:03:13;;;;;;;56.75;33.80;;;;;;;-1.42;100.00;92583.63;5069108;28;20488;-72
2022/12/13 04:05:40;;;;;;;32.33;20.38;;;;;;;-1.41;100.00;92598.59;5068978;28;20044;-71
2022/12/13 04:08:07;;;;;;;26.42;16.50;;;;;;;-1.71;100.00;92609.94;5069162;28;20052;-71
2022/12/13 04:10:35;;;;;;;40.15;23.35;;;;;;;-1.67;100.00;92606.19;5069615;28;20443;-71
2022/12/13 04:15:47;;;;;;;22.77;14.73;;;;;;;-1.46;100.00;92600.78;5068709;28;20146;-71
2022/12/13 04:18:15;;;;;;;23.13;14.30;;;;;;;-1.33;100.00;92609.63;5069132;28;20135;-71
2022/12/13 04:20:42;;;;;;;17.67;12.00;;;;;;;-1.29;100.00;92615.94;5069062;28;20818;-71
2022/12/13 04:23:08;;;;;;;17.52;12.77;;;;;;;-1.25;100.00;92622.28;5068672;28;20036;-72
2022/12/13 04:25:37;;;;;;;19.60;13.55;;;;;;;-1.27;100.00;92624.13;5068695;28;20485;-71
2022/12/13 04:28:04;;;;;;;21.27;14.27;;;;;;;-1.34;100.00;92618.94;5068661;28;20080;-72
2022/12/13 04:30:30;;;;;;;28.77;17.42;;;;;;;-1.28;100.00;92627.59;5068900;28;20045;-72
2022/12/13 04:32:57;;;;;;;23.42;14.32;;;;;;;-1.35;100.00;92637.50;5069102;28;20048;-71
2022/12/13 04:35:24;;;;;;;21.85;14.23;;;;;;;-1.39;100.00;92642.03;5068589;28;20110;-71
2022/12/13 04:37:51;;;;;;;19.20;12.43;;;;;;;-1.43;100.00;92632.44;5068294;28;20090;-71
2022/12/13 04:40:18;;;;;;;26.30;15.18;;;;;;;-1.27;100.00;92647.63;5068656;28;20048;-71
2022/12/13 04:42:46;;;;;;;27.75;15.00;;;;;;;-1.40;100.00;92632.91;5070005;28;20158;-71
2022/12/13 04:45:15;;;;;;;25.55;15.05;;;;;;;-1.38;100.00;92642.84;5068797;28;20044;-71
2022/12/13 04:47:42;;;;;;;20.80;11.32;;;;;;;-1.32;100.00;92644.75;5068297;28;20053;-71
2022/12/13 04:50:09;;;;;;;14.02;10.38;;;;;;;-1.37;100.00;92647.75;5070469;28;20040;-71
2022/12/13 04:52:36;;;;;;;12.82;8.43;;;;;;;-1.42;100.00;92659.19;5068794;28;20044;-71
2022/12/13 04:55:03;;;;;;;13.48;8.98;;;;;;;-1.46;100.00;92655.38;5068524;28;20053;-71
2022/12/13 04:57:30;;;;;;;14.48;9.13;;;;;;;-1.54;100.00;92659.44;5068794;28;20037;-71
2022/12/13 04:59:58;;;;;;;13.60;8.80;;;;;;;-1.56;100.00;92660.53;5068512;28;20128;-71
2022/12/13 05:02:25;;;;;;;16.40;10.88;;;;;;;-1.61;100.00;92654.22;5068138;28;20083;-72
2022/12/13 05:04:52;;;;;;;17.00;11.10;;;;;;;-1.57;100.00;92656.44;5068655;28;20040;-72
2022/12/13 05:07:18;;;;;;;21.80;15.48;;;;;;;-1.55;100.00;92650.31;5068620;28;20098;-72
2022/12/13 05:09:45;;;;;;;18.75;12.70;;;;;;;-1.50;100.00;92653.19;5068586;28;20454;-71
2022/12/13 05:12:12;;;;;;;16.70;11.65;;;;;;;-1.47;100.00;92664.69;5068893;28;20098;-71
2022/12/13 05:14:38;;;;;;;18.40;11.55;;;;;;;-1.50;100.00;92662.47;5068666;28;20098;-71
2022/12/13 05:17:06;;;;;;;14.02;9.45;;;;;;;-1.66;100.00;92661.44;5068503;28;20044;-71
2022/12/13 05:19:33;;;;;;;15.27;10.88;;;;;;;-1.61;100.00;92674.38;5068282;28;20049;-72
2022/12/13 05:22:00;;;;;;;11.75;8.65;;;;;;;-1.63;100.00;92676.25;5068463;28;20044;-72
2022/12/13 05:24:27;;;;;;;11.77;8.45;;;;;;;-1.64;100.00;92673.88;5068199;28;20049;-71
2022/12/13 05:26:54;;;;;;;12.80;8.77;;;;;;;-1.73;100.00;92678.06;5071365;28;20091;-72
2022/12/13 05:29:20;;;;;;;19.10;11.98;;;;;;;-1.75;100.00;92674.94;5071847;28;20053;-72
2022/12/13 05:31:47;;;;;;;19.83;11.77;;;;;;;-1.76;100.00;92670.84;5071934;28;20048;-72
2022/12/13 05:34:15;;;;;;;16.63;11.35;;;;;;;-1.70;100.00;92685.34;5071821;28;20554;-72
2022/12/13 05:36:42;;;;;;;16.73;12.10;;;;;;;-1.67;100.00;92682.50;5071318;28;20048;-72
2022/12/13 05:39:09;;;;;;;17.25;12.05;;;;;;;-1.64;100.00;92692.31;5071607;28;20523;-72
2022/12/13 05:41:37;;;;;;;19.33;12.48;;;;;;;-1.57;100.00;92684.94;5071737;28;20048;-72
2022/12/13 05:44:04;;;;;;;22.02;14.32;;;;;;;-1.53;100.00;92698.81;5070883;28;20055;-72
2022/12/13 05:46:31;;;;;;;25.65;16.00;;;;;;;-1.49;100.00;92697.59;5071204;28;20501;-72
2022/12/13 05:48:57;;;;;;;25.45;15.25;;;;;;;-1.51;100.00;92703.72;5075575;28;20504;-72
2022/12/13 05:51:25;;;;;;;24.92;15.60;;;;;;;-1.43;100.00;92697.94;5071643;28;20048;-72
2022/12/13 05:53:52;;;;;;;25.27;16.80;;;;;;;-1.37;100.00;92702.38;5071159;28;20577;-72
2022/12/13 05:56:19;;;;;;;30.85;18.73;;;;;;;-1.36;100.00;92708.97;5071446;28;20052;-72
2022/12/13 05:58:46;;;;;;;29.58;20.10;;;;;;;-1.32;100.00;92712.78;5071407;28;20083;-72
2022/12/13 06:01:15;;;;;;;29.77;18.67;;;;;;;-1.31;100.00;92713.59;5070970;28;20098;-72
2022/12/13 06:03:42;;;;;;;34.85;18.95;;;;;;;-1.33;100.00;92715.44;5070893;28;20056;-72
2022/12/13 06:06:11;;;;;;;30.17;17.80;;;;;;;-1.32;100.00;92705.22;5071143;28;20045;-72
2022/12/13 06:08:40;;;;;;;26.05;15.55;;;;;;;-1.26;100.00;92704.63;5071016;28;20102;-72
2022/12/13 06:11:07;;;;;;;27.10;16.40;;;;;;;-1.23;100.00;92714.41;5070954;28;20135;-72
2022/12/13 06:13:34;;;;;;;28.83;18.17;;;;;;;-1.25;100.00;92707.94;5071172;28;20052;-72
2022/12/13 06:16:02;;;;;;;29.55;18.08;;;;;;;-1.28;100.00;92705.72;5070945;28;20401;-72
2022/12/13 06:18:31;;;;;;;32.42;18.42;;;;;;;-1.32;100.00;92709.47;5071190;28;20105;-72
2022/12/13 06:20:59;;;;;;;35.40;22.95;;;;;;;-1.26;100.00;92712.19;5070678;28;20080;-72
2022/12/13 06:23:26;;;;;;;28.02;19.58;;;;;;;-1.54;100.00;92673.75;5070774;28;20048;-71
2022/12/13 06:25:54;;;;;;;44.88;25.13;;;;;;;-1.31;100.00;92701.75;5070924;28;20405;-71
2022/12/13 06:28:21;;;;;;;62.83;33.65;;;;;;;-1.33;100.00;92700.34;5070451;28;20052;-72
2022/12/13 06:30:51;;;;;;;45.22;26.00;;;;;;;-1.27;100.00;92718.19;5070893;28;20048;-72
2022/12/13 06:33:18;;;;;;;30.45;20.20;;;;;;;-1.30;100.00;92705.88;5070408;28;20587;-71
2022/12/13 06:35:45;;;;;;;34.17;20.45;;;;;;;-1.21;100.00;92725.13;5070619;28;20094;-71
2022/12/13 06:38:12;;;;;;;38.85;23.25;;;;;;;-1.23;100.00;92721.97;5070554;28;20048;-72
2022/12/13 06:40:39;;;;;;;43.97;27.05;;;;;;;-1.34;100.00;92712.16;5070363;28;20049;-72
2022/12/13 06:43:07;;;;;;;45.25;26.42;;;;;;;-1.39;100.00;92732.75;5070537;28;20041;-72
2022/12/13 06:45:34;;;;;;;31.48;18.40;;;;;;;-1.33;100.00;92735.59;5070447;28;20048;-72
2022/12/13 06:48:00;;;;;;;27.75;17.95;;;;;;;-1.29;100.00;92729.34;5071114;28;20048;-71
2022/12/13 06:50:27;;;;;;;25.95;17.23;;;;;;;-1.27;100.00;92725.72;5071004;28;20106;-71
2022/12/13 06:52:54;;;;;;;25.40;16.30;;;;;;;-1.35;100.00;92690.41;5070098;28;20466;-71
2022/12/13 06:55:20;;;;;;;24.85;16.27;;;;;;;-1.15;100.00;92717.91;5070161;28;20056;-71
2022/12/13 06:57:47;;;;;;;22.42;14.40;;;;;;;-1.07;100.00;92722.97;5070232;28;20049;-72
2022/12/13 07:00:16;;;;;;;17.02;10.32;;;;;;;-1.05;100.00;92722.84;5070256;28;20121;-72
2022/12/13 07:02:43;;;;;;;13.15;9.38;;;;;;;-1.04;100.00;92734.50;5070131;28;20155;-72
2022/12/13 07:05:10;;;;;;;13.27;8.60;;;;;;;-1.02;100.00;92725.06;5070066;28;20110;-71
2022/12/13 07:07:37;;;;;;;12.88;8.25;;;;;;;-0.97;100.00;92736.25;5070112;28;20090;-72
2022/12/13 07:10:04;;;;;;;13.13;8.23;;;;;;;-0.85;100.00;92731.75;5071981;28;20094;-71
2022/12/13 07:12:33;;;;;;;12.10;8.10;;;;;;;-0.86;100.00;92734.41;5070291;28;20080;-72
2022/12/13 07:15:00;;;;;;;13.00;8.25;;;;;;;-0.70;100.00;92744.56;5069610;28;20571;-71
2022/12/13 07:17:28;;;;;;;12.23;8.73;;;;;;;-0.58;100.00;92752.66;5069933;28;20465;-71
2022/12/13 07:19:55;;;;;;;12.23;8.85;;;;;;;-0.54;100.00;92765.75;5079169;28;20051;-71
2022/12/13 07:22:22;;;;;;;12.88;8.00;;;;;;;-0.52;100.00;92758.81;5090319;28;20408;-71
2022/12/13 07:24:48;;;;;;;11.48;8.05;;;;;;;-0.66;100.00;92749.31;5090545;28;20048;-72
2022/12/13 07:27:15;;;;;;;14.48;7.68;;;;;;;-0.57;100.00;92766.84;5090200;28;20109;-72
2022/12/13 07:29:42;;;;;;;12.02;7.10;;;;;;;-0.48;100.00;92752.53;5089884;28;20565;-73
2022/12/13 07:32:08;;;;;;;13.32;8.10;;;;;;;-0.49;100.00;92733.28;5090382;28;20407;-72
2022/12/13 07:34:37;;;;;;;15.48;8.82;;;;;;;-0.31;100.00;92745.78;5089920;28;20097;-72
2022/12/13 07:37:03;;;;;;;24.50;10.65;;;;;;;-0.21;100.00;92752.41;5090216;28;20144;-71
2022/12/13 07:39:31;;;;;;;31.17;19.40;;;;;;;-0.15;100.00;92755.13;5089330;28;20083;-72
2022/12/13 07:41:57;;;;;;;31.75;21.88;;;;;;;-0.11;100.00;92744.69;5070609;28;20063;-72
2022/12/13 07:44:24;;;;;;;33.78;22.00;;;;;;;-0.14;100.00;92749.13;5088420;28;20796;-72
2022/12/13 07:46:51;;;;;;;36.80;22.67;;;;;;;-0.14;100.00;92746.59;5090002;28;20044;-72
2022/12/13 07:49:17;;;;;;;33.35;22.15;;;;;;;-0.06;100.00;92755.94;5088869;28;20491;-72
2022/12/13 07:51:46;;;;;;;54.00;34.80;;;;;;;0.00;100.00;92759.56;5089744;28;20044;-71
2022/12/13 07:54:12;;;;;;;42.03;28.85;;;;;;;0.01;100.00;92765.41;5089776;28;20044;-71
2022/12/13 07:56:39;;;;;;;37.90;24.67;;;;;;;0.05;100.00;92766.69;5089678;28;20487;-71
2022/12/13 07:59:06;;;;;;;41.03;25.67;;;;;;;0.05;100.00;92762.41;5089885;28;20047;-72
2022/12/13 08:01:34;;;;;;;44.20;26.63;;;;;;;0.07;100.00;92764.78;5089248;28;20044;-71
2022/12/13 08:04:00;;;;;;;48.67;27.80;;;;;;;0.15;100.00;92766.50;5089890;28;20131;-71
2022/12/13 08:06:27;;;;;;;37.13;23.00;;;;;;;0.18;100.00;92768.75;5089526;28;20048;-71
2022/12/13 08:08:57;;;;;;;36.08;21.85;;;;;;;0.17;100.00;92764.63;5089732;28;20407;-71
2022/12/13 08:11:24;;;;;;;57.33;34.80;;;;;;;0.26;100.00;92778.84;5089147;28;20048;-71
2022/12/13 08:13:51;;;;;;;33.58;20.33;;;;;;;0.28;100.00;92769.38;5089256;28;20504;-71
2022/12/13 08:16:17;;;;;;;32.05;18.23;;;;;;;0.43;100.00;92779.66;5089467;28;20055;-71
2022/12/13 08:18:46;;;;;;;21.15;11.85;;;;;;;0.43;100.00;92783.91;5089367;28;20142;-71
2022/12/13 08:21:13;;;;;;;23.90;12.30;;;;;;;0.36;100.00;92766.84;5089378;28;20618;-71
2022/12/13 08:23:40;;;;;;;19.95;10.77;;;;;;;0.36;100.00;92774.41;5089399;28;20131;-71
2022/12/13 08:26:08;;;;;;;16.23;9.20;;;;;;;0.36;100.00;92782.00;5089352;28;20078;-71
2022/12/13 08:28:36;;;;;;;16.00;9.55;;;;;;;0.26;100.00;92771.25;5089545;28;20101;-71
2022/12/13 08:31:04;;;;;;;16.38;8.80;;;;;;;0.22;100.00;92764.94;5089303;28;20052;-71
2022/12/13 08:33:31;;;;;;;14.63;7.78;;;;;;;0.13;100.00;92759.09;5089601;28;20101;-71
2022/12/13 08:35:58;;;;;;;15.63;9.40;;;;;;;0.14;100.00;92760.69;5089668;28;20044;-71
2022/12/13 08:38:25;;;;;;;15.85;9.65;;;;;;;-0.07;100.00;92763.66;5089283;28;20044;-71
2022/12/13 08:40:51;;;;;;;16.75;10.07;;;;;;;-0.05;100.00;92752.44;5089203;28;20044;-71
2022/12/13 08:43:19;;;;;;;16.02;9.07;;;;;;;0.05;100.00;92756.56;5089214;28;20052;-71
2022/12/13 08:45:46;;;;;;;18.60;10.13;;;;;;;0.08;100.00;92762.09;5089450;28;20053;-71
2022/12/13 08:48:13;;;;;;;19.63;11.68;;;;;;;0.03;100.00;92754.19;5089079;28;20121;-71
2022/12/13 08:50:39;;;;;;;16.13;10.25;;;;;;;0.13;100.00;92754.84;5089453;28;20048;-72
2022/12/13 08:53:06;;;;;;;17.13;9.75;;;;;;;0.22;100.00;92750.56;5088936;28;20555;-72
2022/12/13 08:55:33;;;;;;;17.95;10.13;;;;;;;0.25;100.00;92755.31;5089308;28;20044;-72
2022/12/13 08:58:07;;;;;;;16.45;9.82;;;;;;;0.28;100.00;92745.84;5089312;28;20384;-72
2022/12/13 09:00:36;;;;;;;15.00;9.85;;;;;;;0.34;100.00;92745.22;5087900;28;20722;-72
2022/12/13 09:03:03;;;;;;;15.52;9.18;;;;;;;0.25;100.00;92742.69;5073590;28;20076;-72
2022/12/13 09:05:30;;;;;;;15.25;8.82;;;;;;;0.22;100.00;92737.94;5072098;28;20048;-72
2022/12/13 09:07:58;;;;;;;13.20;9.18;;;;;;;0.38;100.00;92733.84;5072098;28;20062;-72
2022/12/13 09:10:25;;;;;;;18.80;9.75;;;;;;;0.48;100.00;92733.66;5071946;28;20102;-73
2022/12/13 09:12:53;;;;;;;14.27;9.07;;;;;;;0.52;100.00;92717.25;5072314;28;20044;-72
2022/12/13 09:15:20;;;;;;;12.40;7.88;;;;;;;0.66;100.00;92720.84;5076621;28;20048;-73
2022/12/13 09:17:48;;;;;;;13.40;8.55;;;;;;;0.65;100.00;92715.00;5075351;28;20040;-73
2022/12/13 09:20:15;;;;;;;13.93;7.10;;;;;;;0.54;100.00;92710.28;5084518;28;20055;-73
2022/12/13 09:22:42;;;;;;;14.23;8.30;;;;;;;0.44;100.00;92679.34;5092465;28;20048;-73
2022/12/13 09:25:09;;;;;;;13.65;7.88;;;;;;;0.69;100.00;92699.53;5090803;28;20056;-73
2022/12/13 09:27:36;;;;;;;11.77;7.43;;;;;;;0.61;100.00;92695.28;5088887;28;20048;-73
2022/12/13 09:30:02;;;;;;;10.75;6.10;;;;;;;0.52;100.00;92661.66;5092170;28;20401;-73
2022/12/13 09:32:31;;;;;;;10.85;6.95;;;;;;;0.84;100.00;92681.94;5090086;28;20048;-73
2022/12/13 09:34:59;;;;;;;16.35;7.68;;;;;;;0.89;100.00;92689.81;5092438;28;20071;-72
2022/12/13 09:37:26;;;;;;;14.60;7.22;;;;;;;1.11;100.00;92688.31;5092754;28;20048;-72
2022/12/13 09:39:53;;;;;;;13.18;8.10;;;;;;;1.22;100.00;92686.38;5091852;28;20407;-72
2022/12/13 09:42:23;;;;;;;74.63;27.63;;;;;;;1.10;100.00;92658.13;5092039;28;20079;-72
2022/12/13 09:44:53;;;;;;;21.92;11.27;;;;;;;1.31;100.00;92698.81;5091950;28;20055;-72
2022/12/13 09:47:30;;;;;;;18.98;9.82;;;;;;;1.10;95.09;92699.38;5091901;28;20123;-73
2022/12/13 09:50:01;;;;;;;19.65;9.63;;;;;;;1.16;100.00;92700.47;5090417;28;20044;-72
2022/12/13 09:52:36;;;;;;;17.08;9.38;;;;;;;1.18;100.00;92698.56;5091831;28;20131;-72
2022/12/13 09:55:17;;;;;;;13.07;7.43;;;;;;;1.14;100.00;92702.38;5091543;28;20075;-73
2022/12/13 09:57:44;;;;;;;29.80;8.40;;;;;;;1.14;100.00;92692.25;5076734;28;20097;-73
2022/12/13 10:00:15;;;;;;;38.22;15.93;;;;;;;1.28;100.00;92678.91;5091829;28;20055;-73
2022/12/13 10:02:45;;;;;;;21.38;11.05;;;;;;;1.36;100.00;92682.34;5091626;28;20066;-73
2022/12/13 10:05:21;;;;;;;21.92;9.65;;;;;;;1.44;100.00;92674.72;5091844;28;20147;-73
2022/12/13 10:07:48;;;;;;;296.73;115.40;;;;;;;1.40;100.00;92669.22;5091393;28;20132;-73
2022/12/13 10:10:15;;;;;;;106.97;43.92;;;;;;;1.45;100.00;92661.13;5091759;28;20048;-72
2022/12/13 10:12:43;;;;;;;82.50;35.95;;;;;;;1.51;100.00;92667.22;5090681;28;20105;-72
2022/12/13 10:15:15;;;;;;;84.53;36.22;;;;;;;1.52;100.00;92659.47;5091598;28;20508;-73
2022/12/13 10:17:47;;;;;;;173.85;75.10;;;;;;;1.56;100.00;92654.88;5091718;28;20051;-72
2022/12/13 10:20:19;;;;;;;76.50;34.90;;;;;;;1.62;100.00;92655.94;5091955;28;20575;-72
2022/12/13 10:22:46;;;;;;;63.63;30.40;;;;;;;1.67;100.00;92648.63;5091152;28;20101;-73
2022/12/13 10:25:14;;;;;;;227.32;92.28;;;;;;;1.72;100.00;92648.91;5090904;28;20048;-72
2022/12/13 10:27:43;;;;;;;149.52;60.80;;;;;;;1.60;100.00;92625.72;5091594;28;20048;-72
2022/12/13 10:30:12;;;;;;;51.53;24.33;;;;;;;1.79;100.00;92649.81;5085610;28;20049;-71
2022/12/13 10:32:58;;;;;;;46.75;22.40;;;;;;;1.78;100.00;92655.84;5084504;28;20105;-71
2022/12/13 10:35:35;;;;;;;24.40;13.30;;;;;;;1.60;97.41;92664.50;5088921;28;20052;-73
2022/12/13 10:38:21;;;;;;;18.13;10.02;;;;;;;1.43;100.00;92656.22;5085869;28;21170;-72
2022/12/13 10:40:49;;;;;;;27.50;14.65;;;;;;;1.44;100.00;92644.34;5087947;28;20048;-72
2022/12/13 10:43:19;;;;;;;155.45;76.70;;;;;;;1.54;100.00;92634.00;5081220;28;20586;-72
2022/12/13 10:45:59;;;;;;;30.98;17.30;;;;;;;1.50;100.00;92635.28;5087642;28;20056;-71
2022/12/13 10:48:34;;;;;;;33.05;17.63;;;;;;;1.26;97.90;92616.78;5090528;28;20106;-71
2022/12/13 10:51:05;;;;;;;15.48;9.98;;;;;;;1.04;94.74;92635.09;5090879;28;20101;-72
2022/12/13 10:53:34;;;;;;;21.95;12.73;;;;;;;1.08;100.00;92630.47;5090381;28;20044;-71
2022/12/13 10:56:02;;;;;;;16.65;10.35;;;;;;;1.12;100.00;92634.25;5091146;28;20039;-71
2022/12/13 10:58:38;;;;;;;20.27;11.77;;;;;;;1.17;100.00;92626.94;5105125;28;20044;-71
2022/12/13 11:01:11;;;;;;;51.53;23.08;;;;;;;1.12;100.00;92600.56;5090741;28;20097;-72
2022/12/13 11:03:38;;;;;;;50.00;23.27;;;;;;;1.42;100.00;92613.34;5091069;28;20040;-71
2022/12/13 11:06:12;;;;;;;16.60;10.35;;;;;;;1.47;100.00;92613.63;5100860;28;20077;-72
2022/12/13 11:08:40;;;;;;;18.10;10.57;;;;;;;1.53;100.00;92607.13;5093429;28;20044;-71
2022/12/13 11:11:08;;;;;;;20.25;11.23;;;;;;;1.57;100.00;92611.66;5090786;28;20072;-72
2022/12/13 11:13:38;;;;;;;28.70;14.98;;;;;;;1.60;100.00;92598.69;5090526;28;20048;-71
2022/12/13 11:16:21;;;;;;;96.45;50.42;;;;;;;1.63;100.00;92594.22;5090374;28;20040;-71
2022/12/13 11:18:52;;;;;;;36.60;21.15;;;;;;;1.59;100.00;92594.56;5090982;28;20389;-72
2022/12/13 11:21:25;;;;;;;20.10;12.30;;;;;;;1.62;100.00;92603.56;5090829;28;20056;-71
2022/12/13 11:23:53;;;;;;;17.63;11.27;;;;;;;1.60;100.00;92590.28;5089711;28;20510;-72
2022/12/13 11:26:23;;;;;;;17.45;11.27;;;;;;;1.54;100.00;92598.56;5090195;28;20048;-72
2022/12/13 11:29:09;;;;;;;19.25;11.77;;;;;;;1.42;100.00;92588.03;5090447;28;20048;-71
2022/12/13 11:31:40;;;;;;;;;;;;;;;1.55;100.00;92610.25;5090948;28;20105;-71